Time;durP1;ratioP1;P1;durP2;ratioP2;P2;SDS_P1;SDS_P2;PMS_P1;PMS_P2;Temp;Humidity;BMP_temperature;BMP_pressure;BME280_temperature;BME280_humidity;BME280_pressure;Samples;Min_cycle;Max_cycle;Signal;HPM_P1;HPM_P2
2021/03/18 00:00:14;;;;;;;11.83;8.03;;;3.60;99.90;;;;;;5040056;28;20536;-71
2021/03/18 00:02:40;;;;;;;9.13;6.10;;;3.60;99.90;;;;;;5039995;28;20176;-71
2021/03/18 00:05:08;;;;;;;6.50;5.40;;;3.60;99.90;;;;;;5048777;28;20420;-71
2021/03/18 00:07:35;;;;;;;6.13;5.13;;;3.60;99.90;;;;;;5036039;28;20176;-71
2021/03/18 00:10:01;;;;;;;8.23;5.20;;;3.60;99.90;;;;;;5034641;28;20818;-71
2021/03/18 00:12:26;;;;;;;6.40;5.20;;;3.50;99.90;;;;;;5035163;28;20405;-70
2021/03/18 00:14:52;;;;;;;9.03;5.60;;;3.50;99.90;;;;;;5033095;28;20422;-70
2021/03/18 00:17:18;;;;;;;8.63;5.00;;;3.50;99.90;;;;;;5034815;28;20610;-71
2021/03/18 00:19:44;;;;;;;6.70;5.33;;;3.50;99.90;;;;;;5033351;28;20444;-71
2021/03/18 00:22:09;;;;;;;8.13;5.03;;;3.60;99.90;;;;;;5034929;28;20410;-71
2021/03/18 00:24:35;;;;;;;8.30;6.70;;;3.50;99.90;;;;;;5033165;28;20195;-71
2021/03/18 00:27:00;;;;;;;9.23;5.50;;;3.40;99.90;;;;;;5034859;28;20220;-72
2021/03/18 00:29:26;;;;;;;6.73;6.00;;;3.40;99.90;;;;;;5029694;28;20200;-72
2021/03/18 00:31:51;;;;;;;7.90;6.27;;;3.30;99.90;;;;;;5015135;28;20180;-72
2021/03/18 00:34:17;;;;;;;7.77;5.83;;;3.30;99.90;;;;;;5014338;28;20172;-72
2021/03/18 00:36:43;;;;;;;7.67;6.90;;;3.20;99.90;;;;;;5017264;28;20202;-71
2021/03/18 00:39:09;;;;;;;8.27;6.43;;;3.10;99.90;;;;;;5015460;28;20617;-71
2021/03/18 00:41:35;;;;;;;15.53;8.07;;;3.00;99.90;;;;;;5016176;28;20548;-71
2021/03/18 00:44:01;;;;;;;11.07;7.00;;;2.90;99.90;;;;;;5016761;28;20443;-72
2021/03/18 00:46:27;;;;;;;11.10;7.43;;;2.90;99.90;;;;;;5026084;28;20887;-72
2021/03/18 00:48:52;;;;;;;6.80;6.10;;;3.00;99.90;;;;;;5034494;28;20502;-71
2021/03/18 00:51:19;;;;;;;6.53;5.93;;;3.10;99.90;;;;;;5034423;28;20583;-72
2021/03/18 00:53:47;;;;;;;7.83;5.50;;;3.10;99.90;;;;;;5034315;28;20248;-70
2021/03/18 00:56:16;;;;;;;10.43;5.83;;;3.20;99.90;;;;;;5030506;28;20418;-70
2021/03/18 00:58:43;;;;;;;11.37;5.57;;;3.20;99.90;;;;;;5013132;28;20426;-72
2021/03/18 01:01:09;;;;;;;8.47;5.77;;;3.10;99.90;;;;;;5013626;28;20434;-71
2021/03/18 01:03:37;;;;;;;11.27;5.77;;;3.10;99.90;;;;;;5014499;28;20576;-70
2021/03/18 01:06:14;;;;;;;8.03;6.20;;;3.10;99.90;;;;;;5015868;28;20473;-71
2021/03/18 01:08:41;;;;;;;9.23;6.40;;;3.10;99.90;;;;;;5015490;28;20565;-70
2021/03/18 01:11:12;;;;;;;6.87;6.17;;;3.00;99.90;;;;;;5015103;28;20490;-69
2021/03/18 01:13:46;;;;;;;8.27;5.90;;;3.00;99.90;;;;;;5016091;28;20423;-70
2021/03/18 01:16:52;;;;;;;7.30;6.60;;;2.90;99.90;;;;;;5015912;28;20453;-71
2021/03/18 01:19:22;;;;;;;9.70;6.60;;;2.90;99.90;;;;;;5014894;28;20841;-71
2021/03/18 01:21:52;;;;;;;8.80;6.50;;;3.00;99.90;;;;;;5013075;28;20926;-72
2021/03/18 01:24:18;;;;;;;7.43;6.50;;;3.00;99.90;;;;;;5014409;28;20426;-72
2021/03/18 01:26:44;;;;;;;7.50;5.77;;;3.10;99.90;;;;;;5013892;28;20880;-72
2021/03/18 01:29:11;;;;;;;7.27;5.97;;;3.00;99.90;;;;;;5014735;28;20180;-71
2021/03/18 01:31:37;;;;;;;7.80;5.70;;;3.00;99.90;;;;;;5014365;28;20927;-72
2021/03/18 01:34:04;;;;;;;6.73;6.07;;;3.00;99.90;;;;;;5014265;28;20425;-72
2021/03/18 01:36:31;;;;;;;10.20;6.93;;;3.00;99.90;;;;;;5015378;28;20482;-72
2021/03/18 01:38:57;;;;;;;10.40;6.87;;;3.10;99.90;;;;;;5014334;28;20439;-72
2021/03/18 01:41:24;;;;;;;9.00;6.73;;;3.10;99.90;;;;;;5013642;28;20798;-71
2021/03/18 01:43:50;;;;;;;6.40;5.80;;;3.10;99.90;;;;;;5014157;28;20169;-71
2021/03/18 01:46:16;;;;;;;11.23;7.33;;;3.10;99.90;;;;;;5014168;28;20426;-71
2021/03/18 01:48:42;;;;;;;9.33;6.53;;;3.10;99.90;;;;;;5015954;28;20180;-72
2021/03/18 01:51:08;;;;;;;9.57;6.03;;;3.10;99.90;;;;;;5036085;28;20775;-72
2021/03/18 01:53:34;;;;;;;10.90;7.07;;;3.00;99.90;;;;;;5037307;28;20198;-72
2021/03/18 01:56:02;;;;;;;10.80;7.23;;;2.90;99.90;;;;;;5036598;28;20407;-72
2021/03/18 01:58:28;;;;;;;9.00;6.90;;;2.90;99.90;;;;;;5035792;28;21018;-71
2021/03/18 02:00:56;;;;;;;8.73;7.40;;;2.80;99.90;;;;;;5037353;28;20437;-72
2021/03/18 02:03:22;;;;;;;10.83;7.03;;;2.80;99.90;;;;;;5036380;28;20414;-71
2021/03/18 02:05:50;;;;;;;9.53;7.20;;;2.80;99.90;;;;;;5036202;28;20763;-72
2021/03/18 02:08:16;;;;;;;10.27;7.30;;;2.80;99.90;;;;;;5036792;28;20187;-71
2021/03/18 02:10:42;;;;;;;9.50;6.97;;;2.80;99.90;;;;;;5037483;28;20545;-71
2021/03/18 02:13:10;;;;;;;13.90;7.00;;;2.90;99.90;;;;;;5037304;28;20498;-70
2021/03/18 02:15:55;;;;;;;9.40;6.37;;;3.00;99.90;;;;;;5037478;28;20402;-70
2021/03/18 02:18:40;;;;;;;10.13;6.90;;;3.10;99.90;;;;;;5033845;28;20938;-70
2021/03/18 02:21:36;;;;;;;9.40;6.43;;;3.20;99.90;;;;;;5037420;28;20429;-71
2021/03/18 02:24:11;;;;;;;8.70;7.10;;;3.20;99.90;;;;;;5037664;28;20414;-71
2021/03/18 02:27:07;;;;;;;8.10;6.70;;;3.20;99.90;;;;;;5037074;28;20441;-70
2021/03/18 02:30:20;;;;;;;12.13;6.97;;;3.20;99.90;;;;;;4997623;28;20950;-71
2021/03/18 02:33:13;;;;;;;10.63;6.40;;;3.30;99.90;;;;;;4997485;28;20404;-71
2021/03/18 02:35:52;;;;;;;16.97;7.70;;;3.30;99.90;;;;;;4997363;28;20430;-71
2021/03/18 02:38:26;;;;;;;9.07;7.13;;;3.30;99.90;;;;;;5006089;28;20929;-71
2021/03/18 02:40:56;;;;;;;7.47;6.53;;;3.20;99.90;;;;;;5016862;28;20541;-71
2021/03/18 02:43:24;;;;;;;10.40;6.40;;;3.10;99.90;;;;;;5017149;28;20411;-71
2021/03/18 02:45:54;;;;;;;8.27;6.60;;;3.00;99.90;;;;;;5017146;28;20810;-70
2021/03/18 02:48:25;;;;;;;10.07;7.47;;;2.90;99.90;;;;;;5017510;28;20503;-71
2021/03/18 02:50:52;;;;;;;7.97;7.10;;;2.90;99.90;;;;;;5016572;28;20983;-71
2021/03/18 02:53:19;;;;;;;8.80;7.30;;;2.80;99.90;;;;;;5016311;28;20430;-70
2021/03/18 02:55:49;;;;;;;7.43;6.30;;;2.80;99.90;;;;;;5015780;28;20415;-71
2021/03/18 02:58:21;;;;;;;10.97;7.60;;;2.80;99.90;;;;;;5016553;28;20415;-70
2021/03/18 03:00:49;;;;;;;9.43;6.87;;;2.70;99.90;;;;;;5016225;28;20808;-71
2021/03/18 03:03:17;;;;;;;12.07;7.00;;;2.70;99.90;;;;;;5015853;28;20430;-71
2021/03/18 03:05:47;;;;;;;12.93;8.50;;;2.60;99.90;;;;;;5016916;28;20481;-71
2021/03/18 03:08:13;;;;;;;11.00;8.00;;;2.70;99.90;;;;;;5016281;28;20975;-71
2021/03/18 03:10:40;;;;;;;9.70;7.90;;;2.70;99.90;;;;;;5017353;28;20458;-71
2021/03/18 03:13:06;;;;;;;10.03;7.30;;;2.70;99.90;;;;;;5016818;28;20848;-71
2021/03/18 03:15:32;;;;;;;11.53;8.40;;;2.70;99.90;;;;;;5016920;28;20449;-71
2021/03/18 03:18:02;;;;;;;12.70;7.87;;;2.60;99.90;;;;;;5015738;28;20410;-71
2021/03/18 03:20:29;;;;;;;13.63;8.60;;;2.50;99.90;;;;;;5018770;28;20519;-71
2021/03/18 03:22:56;;;;;;;13.50;9.40;;;2.50;99.90;;;;;;5017570;28;20779;-71
2021/03/18 03:25:22;;;;;;;11.73;9.80;;;2.50;99.90;;;;;;5018451;28;20444;-71
2021/03/18 03:27:49;;;;;;;9.73;7.87;;;2.60;99.90;;;;;;5018099;28;20445;-71
2021/03/18 03:30:15;;;;;;;13.30;8.80;;;2.70;99.90;;;;;;5023798;28;20488;-71
2021/03/18 03:32:44;;;;;;;10.53;8.30;;;2.80;99.90;;;;;;5042490;28;20460;-71
2021/03/18 03:35:11;;;;;;;14.70;8.30;;;2.80;99.90;;;;;;5050643;28;20487;-71
2021/03/18 03:37:39;;;;;;;9.67;7.90;;;2.70;99.90;;;;;;5020147;28;20461;-71
2021/03/18 03:40:06;;;;;;;9.93;8.10;;;2.60;99.90;;;;;;5016253;28;20438;-71
2021/03/18 03:42:32;;;;;;;12.90;7.97;;;2.60;99.90;;;;;;5015986;28;20439;-71
2021/03/18 03:44:58;;;;;;;13.50;7.93;;;2.60;99.90;;;;;;5015822;28;20843;-71
2021/03/18 03:47:23;;;;;;;10.23;7.40;;;2.60;99.90;;;;;;5015598;28;20425;-71
2021/03/18 03:49:49;;;;;;;11.00;7.60;;;2.60;99.90;;;;;;5015260;28;20213;-71
2021/03/18 03:52:31;;;;;;;10.73;7.77;;;2.70;99.90;;;;;;5017127;28;20179;-71
2021/03/18 03:55:01;;;;;;;11.07;8.70;;;2.70;99.90;;;;;;5016047;28;20954;-71
2021/03/18 03:58:09;;;;;;;11.47;9.50;;;2.70;99.90;;;;;;5015633;28;20884;-71
2021/03/18 04:00:35;;;;;;;11.47;8.33;;;2.60;99.90;;;;;;5005563;28;20431;-71
2021/03/18 04:03:06;;;;;;;10.53;8.53;;;2.60;99.90;;;;;;5016695;28;20414;-71
2021/03/18 04:05:35;;;;;;;12.30;9.70;;;2.50;99.90;;;;;;5015477;28;20503;-71
2021/03/18 04:08:04;;;;;;;12.77;9.10;;;2.50;99.90;;;;;;5015542;28;20915;-71
2021/03/18 04:10:32;;;;;;;13.07;9.17;;;2.60;99.90;;;;;;5014930;28;20459;-71
2021/03/18 04:12:59;;;;;;;10.70;8.53;;;2.60;99.90;;;;;;5014283;28;20481;-71
2021/03/18 04:15:28;;;;;;;13.00;9.27;;;2.70;99.90;;;;;;5016449;28;20426;-71
2021/03/18 04:17:55;;;;;;;10.83;8.93;;;2.80;99.90;;;;;;5015280;28;20409;-71
2021/03/18 04:20:23;;;;;;;15.27;10.10;;;2.80;99.90;;;;;;5015173;28;20532;-71
2021/03/18 04:22:52;;;;;;;13.17;10.20;;;2.70;99.90;;;;;;5014798;28;20417;-71
2021/03/18 04:25:21;;;;;;;16.40;11.60;;;2.70;99.90;;;;;;5015733;28;20516;-71
2021/03/18 04:27:48;;;;;;;11.83;9.83;;;2.70;99.90;;;;;;5015234;28;20515;-71
2021/03/18 04:30:15;;;;;;;14.50;9.73;;;2.60;99.90;;;;;;5014663;28;20477;-71
2021/03/18 04:32:44;;;;;;;12.10;9.47;;;2.60;99.90;;;;;;5014992;28;20518;-71
2021/03/18 04:35:11;;;;;;;16.43;9.83;;;2.50;99.90;;;;;;5015622;28;20465;-71
2021/03/18 04:37:38;;;;;;;12.80;9.30;;;2.50;99.90;;;;;;5014270;28;20502;-71
2021/03/18 04:40:09;;;;;;;11.93;9.23;;;2.40;99.90;;;;;;5011683;28;20549;-71
2021/03/18 04:42:36;;;;;;;12.97;9.50;;;2.40;99.90;;;;;;5016300;28;20434;-70
2021/03/18 04:45:05;;;;;;;13.00;10.90;;;2.40;99.90;;;;;;5015095;28;20408;-71
2021/03/18 04:47:32;;;;;;;15.20;11.53;;;2.50;99.90;;;;;;5033176;28;20430;-71
2021/03/18 04:49:58;;;;;;;14.77;13.20;;;2.60;99.90;;;;;;5035212;28;20477;-71
2021/03/18 04:52:24;;;;;;;17.03;13.00;;;2.40;99.90;;;;;;5035268;28;20413;-71
2021/03/18 04:54:49;;;;;;;16.43;11.37;;;2.40;99.90;;;;;;5033218;28;20770;-71
2021/03/18 04:57:19;;;;;;;19.50;14.10;;;2.40;99.90;;;;;;5032737;28;20186;-71
2021/03/18 04:59:49;;;;;;;15.33;11.60;;;2.40;99.90;;;;;;5034257;28;20203;-71
2021/03/18 05:02:16;;;;;;;17.07;12.50;;;2.40;99.90;;;;;;5033972;28;20434;-71
2021/03/18 05:04:43;;;;;;;16.67;11.60;;;2.50;99.90;;;;;;5034409;28;20786;-71
2021/03/18 05:07:11;;;;;;;13.33;11.40;;;2.60;99.90;;;;;;5032484;28;20456;-71
2021/03/18 05:09:38;;;;;;;16.00;12.90;;;2.80;99.90;;;;;;5033649;28;20897;-71
2021/03/18 05:12:06;;;;;;;18.97;12.73;;;2.80;99.90;;;;;;5034264;28;20430;-71
2021/03/18 05:14:32;;;;;;;15.57;12.00;;;2.80;99.90;;;;;;5034245;28;20759;-71
2021/03/18 05:16:58;;;;;;;22.63;11.37;;;2.80;99.90;;;;;;5034427;28;20421;-71
2021/03/18 05:19:24;;;;;;;16.63;12.27;;;2.80;99.90;;;;;;5030674;28;20187;-71
2021/03/18 05:21:50;;;;;;;12.50;11.00;;;2.70;99.90;;;;;;5033794;28;20931;-71
2021/03/18 05:24:17;;;;;;;12.30;10.53;;;2.60;99.90;;;;;;5034167;28;20475;-70
2021/03/18 05:26:43;;;;;;;12.50;10.73;;;2.50;99.90;;;;;;5033648;28;20417;-71
2021/03/18 05:29:10;;;;;;;15.83;11.80;;;2.30;99.90;;;;;;5031355;28;20471;-71
2021/03/18 05:31:36;;;;;;;13.60;10.90;;;2.30;99.90;;;;;;5021598;28;20975;-71
2021/03/18 05:34:03;;;;;;;13.50;10.60;;;2.30;99.90;;;;;;5006466;28;20426;-71
2021/03/18 05:36:29;;;;;;;16.77;11.83;;;2.40;99.90;;;;;;5012565;28;20407;-72
2021/03/18 05:38:55;;;;;;;12.60;10.70;;;2.40;99.90;;;;;;5007033;28;20431;-72
2021/03/18 05:41:21;;;;;;;13.37;10.67;;;2.40;99.90;;;;;;4999417;28;20455;-71
2021/03/18 05:43:48;;;;;;;12.33;9.77;;;2.40;99.90;;;;;;5002457;28;20530;-72
2021/03/18 05:46:15;;;;;;;14.23;9.97;;;2.40;99.90;;;;;;5013951;28;20426;-72
2021/03/18 05:48:44;;;;;;;11.57;9.50;;;2.60;99.90;;;;;;5013458;28;20420;-71
2021/03/18 05:51:17;;;;;;;21.00;13.90;;;2.70;99.90;;;;;;4999107;28;20478;-72
2021/03/18 05:53:45;;;;;;;12.87;11.50;;;2.80;99.90;;;;;;4999905;28;20509;-71
2021/03/18 05:56:19;;;;;;;18.77;12.93;;;2.90;99.90;;;;;;4996569;28;20435;-70
2021/03/18 05:58:46;;;;;;;27.13;12.20;;;3.00;99.90;;;;;;5013503;28;20463;-71
2021/03/18 06:01:13;;;;;;;14.83;12.47;;;3.00;99.90;;;;;;5012034;28;20845;-71
2021/03/18 06:03:39;;;;;;;12.60;11.17;;;3.10;99.90;;;;;;5013285;28;20418;-70
2021/03/18 06:06:06;;;;;;;17.37;12.70;;;3.20;99.90;;;;;;5013390;28;20869;-70
2021/03/18 06:08:38;;;;;;;16.20;12.50;;;3.30;99.90;;;;;;5022733;28;20450;-70
2021/03/18 06:11:05;;;;;;;14.83;12.00;;;3.40;99.90;;;;;;5001250;28;20482;-71
2021/03/18 06:13:35;;;;;;;12.00;10.40;;;3.40;99.90;;;;;;5004488;28;20463;-70
2021/03/18 06:16:01;;;;;;;13.77;10.97;;;3.40;99.90;;;;;;4993556;28;20499;-71
2021/03/18 06:18:28;;;;;;;15.20;11.03;;;3.50;99.90;;;;;;5005784;28;20455;-71
2021/03/18 06:20:55;;;;;;;17.43;11.90;;;3.50;99.90;;;;;;5000027;28;20825;-71
2021/03/18 06:23:22;;;;;;;13.37;11.30;;;3.60;99.90;;;;;;5008663;28;20429;-70
2021/03/18 06:25:49;;;;;;;16.73;10.97;;;3.60;99.90;;;;;;4993329;28;20414;-69
2021/03/18 06:28:20;;;;;;;11.03;9.90;;;3.70;99.90;;;;;;4996966;28;20478;-71
2021/03/18 06:30:54;;;;;;;11.60;9.67;;;3.70;99.90;;;;;;5032951;28;20465;-72
2021/03/18 06:33:26;;;;;;;12.30;9.87;;;3.80;99.90;;;;;;5028251;28;20437;-72
2021/03/18 06:35:53;;;;;;;13.43;10.73;;;3.90;99.90;;;;;;5018107;28;20420;-71
2021/03/18 06:38:26;;;;;;;16.83;11.53;;;3.90;99.90;;;;;;5018022;28;20742;-73
2021/03/18 06:40:52;;;;;;;15.27;11.07;;;4.00;99.90;;;;;;5006948;28;20501;-70
2021/03/18 06:43:17;;;;;;;10.73;9.73;;;4.10;99.90;;;;;;5031234;28;20448;-70
2021/03/18 06:45:44;;;;;;;15.70;11.13;;;4.10;99.90;;;;;;5035504;28;20457;-71
2021/03/18 06:48:17;;;;;;;13.20;10.17;;;4.20;99.90;;;;;;5036737;28;20255;-71
2021/03/18 06:50:45;;;;;;;13.03;10.37;;;4.20;99.90;;;;;;5026945;28;20484;-70
2021/03/18 06:53:21;;;;;;;14.00;10.90;;;4.30;99.90;;;;;;5035964;28;20821;-71
2021/03/18 06:55:47;;;;;;;17.40;12.57;;;4.40;99.90;;;;;;5037016;28;20446;-71
2021/03/18 06:58:19;;;;;;;13.87;11.13;;;4.40;99.90;;;;;;5037537;28;20424;-71
2021/03/18 07:00:53;;;;;;;12.67;11.07;;;4.50;99.90;;;;;;5032295;28;20437;-71
2021/03/18 07:03:24;;;;;;;14.00;10.93;;;4.60;99.90;;;;;;5017879;28;20460;-70
2021/03/18 07:05:50;;;;;;;18.10;11.30;;;4.60;99.90;;;;;;5017506;28;20429;-71
2021/03/18 07:08:29;;;;;;;15.43;11.33;;;4.70;99.90;;;;;;5020707;28;20418;-72
2021/03/18 07:10:59;;;;;;;14.30;11.77;;;4.80;99.90;;;;;;5024045;28;20222;-70
2021/03/18 07:13:27;;;;;;;15.10;12.03;;;4.80;99.90;;;;;;5018081;28;20817;-70
2021/03/18 07:15:55;;;;;;;14.30;11.50;;;4.80;99.90;;;;;;5016579;28;20410;-70
2021/03/18 07:18:22;;;;;;;15.10;11.73;;;4.80;99.90;;;;;;5015804;28;20445;-70
2021/03/18 07:20:57;;;;;;;14.23;11.73;;;4.80;99.90;;;;;;5016197;28;20928;-70
2021/03/18 07:23:35;;;;;;;17.30;13.00;;;4.90;99.90;;;;;;5016709;28;20962;-70
2021/03/18 07:26:09;;;;;;;12.53;11.23;;;5.10;99.90;;;;;;5016540;28;20468;-70
2021/03/18 07:28:35;;;;;;;16.30;13.00;;;5.10;99.90;;;;;;5016277;28;20419;-70
2021/03/18 07:31:01;;;;;;;18.60;14.03;;;5.20;99.90;;;;;;5018178;28;20473;-71
2021/03/18 07:33:27;;;;;;;19.20;13.10;;;5.20;99.90;;;;;;5017914;28;20506;-70
2021/03/18 07:35:52;;;;;;;19.90;13.47;;;5.30;99.90;;;;;;5017078;28;20407;-70
2021/03/18 07:38:18;;;;;;;18.40;12.70;;;5.40;99.90;;;;;;5015903;28;20622;-70
2021/03/18 07:40:44;;;;;;;16.13;14.00;;;5.40;99.90;;;;;;5015744;28;20278;-70
2021/03/18 07:43:09;;;;;;;19.00;13.73;;;5.60;99.90;;;;;;5032780;28;20497;-71
2021/03/18 07:45:37;;;;;;;17.73;13.47;;;5.60;99.90;;;;;;5035789;28;20416;-71
2021/03/18 07:48:03;;;;;;;14.90;12.57;;;5.60;99.90;;;;;;5036262;28;20460;-70
2021/03/18 07:50:36;;;;;;;14.37;12.87;;;5.70;99.90;;;;;;5037129;28;20489;-71
2021/03/18 07:53:02;;;;;;;14.73;13.30;;;5.80;99.90;;;;;;5036963;28;20448;-71
2021/03/18 07:55:32;;;;;;;19.07;14.60;;;5.90;99.90;;;;;;5035944;28;20405;-71
2021/03/18 07:57:58;;;;;;;18.33;15.43;;;6.00;99.90;;;;;;5036361;28;20433;-71
2021/03/18 08:00:24;;;;;;;17.10;14.30;;;6.20;99.90;;;;;;5035398;28;20480;-71
2021/03/18 08:02:51;;;;;;;15.90;14.20;;;6.30;99.90;;;;;;5034440;28;20963;-71
2021/03/18 08:05:37;;;;;;;15.20;13.20;;;6.30;99.90;;;;;;5035637;28;20450;-71
2021/03/18 08:08:04;;;;;;;16.13;14.10;;;6.40;99.90;;;;;;5035439;28;20470;-71
2021/03/18 08:10:29;;;;;;;18.13;14.57;;;6.50;99.90;;;;;;5028928;28;20450;-71
2021/03/18 08:12:56;;;;;;;15.10;13.60;;;6.40;99.90;;;;;;5015464;28;20473;-71
2021/03/18 08:15:25;;;;;;;18.53;14.17;;;6.50;99.90;;;;;;5015604;28;20204;-70
2021/03/18 08:17:53;;;;;;;23.07;14.30;;;6.40;99.90;;;;;;5015932;28;20419;-71
2021/03/18 08:20:42;;;;;;;18.17;14.37;;;6.30;99.90;;;;;;5015325;28;20435;-71
2021/03/18 08:23:23;;;;;;;18.40;14.90;;;6.50;99.90;;;;;;5010856;28;20422;-69
2021/03/18 08:26:12;;;;;;;19.10;14.07;;;6.60;99.90;;;;;;5014713;28;20419;-71
2021/03/18 08:28:39;;;;;;;20.80;14.87;;;6.60;99.90;;;;;;5015697;28;20443;-71
2021/03/18 08:31:06;;;;;;;17.70;13.93;;;6.70;99.90;;;;;;5015063;28;20574;-72
2021/03/18 08:33:38;;;;;;;16.70;13.30;;;6.90;99.90;;;;;;5015380;28;20415;-70
2021/03/18 08:36:32;;;;;;;17.30;13.50;;;7.00;99.90;;;;;;5015607;28;20449;-71
2021/03/18 08:39:04;;;;;;;19.90;12.77;;;7.00;99.90;;;;;;5013619;28;20420;-70
2021/03/18 08:41:36;;;;;;;15.27;12.53;;;7.10;99.90;;;;;;5018360;28;20522;-72
2021/03/18 08:44:31;;;;;;;15.63;12.80;;;7.20;99.90;;;;;;5034747;28;20406;-71
2021/03/18 08:47:02;;;;;;;18.13;13.40;;;7.10;99.90;;;;;;5015674;28;20418;-71
2021/03/18 08:49:36;;;;;;;16.00;14.30;;;7.20;99.90;;;;;;5014987;28;20990;-71
2021/03/18 08:52:09;;;;;;;21.10;15.30;;;7.20;99.90;;;;;;5014926;28;20808;-71
2021/03/18 08:54:51;;;;;;;21.10;14.30;;;7.20;99.90;;;;;;5014663;28;20896;-71
2021/03/18 08:57:19;;;;;;;20.00;15.33;;;7.30;99.90;;;;;;5014736;28;20468;-71
2021/03/18 08:59:49;;;;;;;17.63;15.17;;;7.20;99.90;;;;;;5013420;28;20988;-71
2021/03/18 09:02:19;;;;;;;15.70;12.93;;;7.30;99.90;;;;;;5014490;28;20466;-71
2021/03/18 09:04:49;;;;;;;19.20;13.87;;;7.40;99.90;;;;;;5014157;28;20410;-71
2021/03/18 09:07:27;;;;;;;21.13;12.30;;;7.40;99.90;;;;;;5014406;28;20411;-71
2021/03/18 09:10:16;;;;;;;15.20;10.33;;;7.30;99.90;;;;;;5013996;28;20943;-70
2021/03/18 09:12:46;;;;;;;11.33;9.27;;;7.30;99.90;;;;;;5013984;28;20464;-71
2021/03/18 09:15:26;;;;;;;15.93;10.83;;;6.90;99.90;;;;;;5014497;28;20422;-70
2021/03/18 09:17:56;;;;;;;17.27;10.63;;;6.70;99.90;;;;;;5013986;28;20399;-71
2021/03/18 09:20:25;;;;;;;16.87;11.90;;;6.80;99.90;;;;;;5014494;28;20518;-71
2021/03/18 09:22:52;;;;;;;14.40;12.60;;;6.90;99.90;;;;;;5013170;28;20760;-71
2021/03/18 09:25:24;;;;;;;17.37;11.50;;;6.60;99.90;;;;;;5012873;28;20493;-71
2021/03/18 09:27:50;;;;;;;20.30;14.33;;;6.60;99.90;;;;;;5014269;28;20430;-70
2021/03/18 09:30:23;;;;;;;18.30;13.97;;;6.80;99.90;;;;;;5013694;28;20454;-71
2021/03/18 09:32:50;;;;;;;23.60;14.03;;;6.90;99.90;;;;;;5013822;28;20649;-71
2021/03/18 09:35:16;;;;;;;15.30;13.40;;;6.90;99.90;;;;;;5014463;28;20485;-71
2021/03/18 09:37:44;;;;;;;17.33;15.00;;;7.00;99.90;;;;;;5014195;28;20403;-71
2021/03/18 09:40:11;;;;;;;28.60;14.13;;;7.20;99.90;;;;;;5013583;28;20432;-71
2021/03/18 09:42:37;;;;;;;18.77;14.57;;;7.20;99.90;;;;;;5025906;28;20430;-71
2021/03/18 09:45:08;;;;;;;19.30;13.90;;;7.40;99.90;;;;;;5033786;28;20781;-71
2021/03/18 09:47:35;;;;;;;22.07;16.33;;;7.50;99.90;;;;;;5034076;28;20751;-71
2021/03/18 09:50:01;;;;;;;22.00;15.07;;;7.60;99.90;;;;;;5033919;28;20469;-72
2021/03/18 09:52:27;;;;;;;27.73;16.23;;;7.60;99.90;;;;;;5034527;28;20486;-71
2021/03/18 09:54:58;;;;;;;26.83;17.70;;;7.40;99.90;;;;;;5032752;28;20882;-71
2021/03/18 09:57:28;;;;;;;21.93;15.67;;;7.20;99.90;;;;;;5032978;28;20895;-71
2021/03/18 09:59:55;;;;;;;20.53;15.53;;;7.20;99.90;;;;;;5033428;28;20813;-72
2021/03/18 10:02:29;;;;;;;23.40;16.27;;;7.40;99.90;;;;;;5033973;28;20789;-71
2021/03/18 10:04:55;;;;;;;23.67;16.30;;;7.40;99.90;;;;;;5033572;28;20398;-69
2021/03/18 10:07:29;;;;;;;19.73;15.70;;;7.50;99.90;;;;;;5033155;28;20945;-71
2021/03/18 10:09:55;;;;;;;18.77;14.90;;;7.50;99.90;;;;;;5032865;28;20461;-71
2021/03/18 10:12:22;;;;;;;19.57;16.00;;;7.70;99.90;;;;;;5036263;28;20405;-71
2021/03/18 10:15:02;;;;;;;20.50;16.30;;;7.70;99.90;;;;;;5037472;28;20732;-71
2021/03/18 10:17:41;;;;;;;29.00;18.67;;;7.90;99.90;;;;;;5038103;28;20458;-71
2021/03/18 10:20:14;;;;;;;27.93;18.70;;;7.90;99.70;;;;;;5020744;28;20450;-71
2021/03/18 10:22:57;;;;;;;22.83;18.13;;;7.70;99.50;;;;;;5017177;28;20417;-69
2021/03/18 10:25:23;;;;;;;25.30;18.57;;;7.60;99.70;;;;;;5017562;28;20466;-71
2021/03/18 10:27:52;;;;;;;23.47;16.40;;;7.60;99.90;;;;;;5015709;28;20521;-71
2021/03/18 10:30:21;;;;;;;22.20;15.57;;;7.50;99.70;;;;;;5016922;28;20508;-71
2021/03/18 10:33:05;;;;;;;24.50;15.60;;;7.40;99.00;;;;;;5017264;28;20409;-72
2021/03/18 10:35:32;;;;;;;23.73;16.90;;;7.40;99.70;;;;;;5017191;28;20425;-71
2021/03/18 10:37:58;;;;;;;26.00;19.17;;;7.60;99.80;;;;;;5016990;28;20772;-71
2021/03/18 10:40:31;;;;;;;26.03;17.57;;;7.70;99.50;;;;;;5016772;28;20444;-71
2021/03/18 10:42:59;;;;;;;22.37;18.10;;;8.00;99.30;;;;;;5029927;28;20225;-70
2021/03/18 10:45:37;;;;;;;21.70;18.67;;;7.90;98.80;;;;;;5035633;28;20409;-71
2021/03/18 10:48:07;;;;;;;24.03;18.03;;;8.00;98.80;;;;;;5036110;28;20427;-71
2021/03/18 10:50:41;;;;;;;24.70;17.10;;;8.00;98.30;;;;;;5036931;28;20465;-71
2021/03/18 10:53:09;;;;;;;23.23;18.20;;;8.10;98.80;;;;;;5037010;28;20413;-71
2021/03/18 10:55:41;;;;;;;26.10;18.30;;;8.20;98.50;;;;;;5037108;28;20401;-70
2021/03/18 10:58:14;;;;;;;23.70;18.30;;;8.10;98.50;;;;;;5038312;28;20413;-70
2021/03/18 11:00:41;;;;;;;23.20;17.73;;;8.20;98.40;;;;;;5037541;28;20791;-70
2021/03/18 11:03:17;;;;;;;24.40;19.47;;;8.30;98.40;;;;;;5036050;28;20515;-71
2021/03/18 11:05:48;;;;;;;22.43;18.20;;;8.40;98.10;;;;;;5037793;28;20412;-69
2021/03/18 11:08:15;;;;;;;23.17;18.37;;;8.20;98.00;;;;;;5037872;28;20409;-70
2021/03/18 11:10:46;;;;;;;25.73;18.57;;;8.00;98.40;;;;;;5038038;28;20582;-70
2021/03/18 11:13:19;;;;;;;23.60;18.63;;;7.90;98.70;;;;;;5036138;28;20610;-70
2021/03/18 11:16:06;;;;;;;27.57;16.90;;;7.90;98.80;;;;;;5019817;28;20420;-71
2021/03/18 11:18:56;;;;;;;24.80;19.70;;;7.90;98.90;;;;;;5017103;28;20420;-71
2021/03/18 11:21:23;;;;;;;26.30;17.70;;;8.10;98.60;;;;;;5013690;28;20505;-71
2021/03/18 11:23:50;;;;;;;22.27;16.47;;;8.20;98.50;;;;;;5015903;28;20415;-72
2021/03/18 11:26:22;;;;;;;22.43;19.07;;;7.80;98.30;;;;;;5016550;28;20440;-69
2021/03/18 11:29:01;;;;;;;24.50;17.47;;;7.70;98.90;;;;;;5015488;28;20607;-70
2021/03/18 11:31:28;;;;;;;23.73;16.60;;;7.70;98.70;;;;;;5015351;28;20987;-71
2021/03/18 11:33:54;;;;;;;23.20;16.53;;;7.80;99.00;;;;;;5019973;28;20448;-70
2021/03/18 11:36:21;;;;;;;18.77;15.80;;;7.80;98.60;;;;;;5021936;28;20411;-70
2021/03/18 11:38:47;;;;;;;19.23;14.80;;;8.00;98.60;;;;;;5024673;28;20501;-69
2021/03/18 11:41:13;;;;;;;24.83;15.53;;;8.10;98.30;;;;;;5017310;28;20857;-71
2021/03/18 11:43:39;;;;;;;17.07;15.27;;;8.30;98.10;;;;;;5022492;28;20474;-70
2021/03/18 11:46:06;;;;;;;17.70;13.87;;;8.40;98.00;;;;;;5016471;28;20411;-70
2021/03/18 11:48:32;;;;;;;16.20;14.20;;;8.40;97.60;;;;;;5016037;28;20417;-71
2021/03/18 11:50:58;;;;;;;18.77;15.20;;;8.30;97.80;;;;;;5016388;28;20470;-71
2021/03/18 11:53:24;;;;;;;18.90;13.70;;;8.40;97.80;;;;;;5015269;28;20477;-70
2021/03/18 11:55:50;;;;;;;14.43;12.70;;;8.60;97.80;;;;;;5016439;28;20418;-70
2021/03/18 11:58:16;;;;;;;14.77;11.07;;;8.70;97.20;;;;;;5016486;28;20494;-71
2021/03/18 12:00:42;;;;;;;12.00;9.60;;;8.70;96.80;;;;;;5013984;28;20532;-70
2021/03/18 12:03:10;;;;;;;14.80;12.50;;;8.70;96.60;;;;;;5015272;28;20191;-71
2021/03/18 12:05:36;;;;;;;18.83;11.80;;;8.40;97.00;;;;;;5016448;28;20185;-70
2021/03/18 12:08:04;;;;;;;13.87;11.40;;;8.40;97.20;;;;;;5015142;28;20444;-70
2021/03/18 12:10:30;;;;;;;12.37;10.60;;;8.40;97.40;;;;;;5015227;28;20465;-70
2021/03/18 12:12:56;;;;;;;11.80;9.23;;;8.50;97.50;;;;;;5015359;28;20780;-70
2021/03/18 12:15:22;;;;;;;12.43;10.57;;;8.30;97.10;;;;;;5015046;28;20461;-71
2021/03/18 12:17:48;;;;;;;10.80;8.53;;;7.90;97.70;;;;;;5014227;28;20221;-71
2021/03/18 12:20:17;;;;;;;10.07;8.80;;;7.50;98.40;;;;;;5014670;28;20199;-71
2021/03/18 12:22:47;;;;;;;10.87;6.30;;;7.30;99.10;;;;;;5015410;28;20408;-71
2021/03/18 12:25:15;;;;;;;6.80;6.03;;;7.00;98.00;;;;;;5015160;28;20824;-71
2021/03/18 12:27:41;;;;;;;6.93;6.00;;;6.90;98.50;;;;;;5014897;28;20422;-71
2021/03/18 12:30:09;;;;;;;6.50;5.50;;;6.90;98.90;;;;;;5014954;28;20541;-71
2021/03/18 12:32:35;;;;;;;6.63;5.17;;;7.00;98.90;;;;;;5014796;28;20944;-71
2021/03/18 12:35:01;;;;;;;11.33;5.70;;;7.20;98.50;;;;;;5014821;28;20434;-71
2021/03/18 12:37:27;;;;;;;5.93;5.40;;;7.30;98.00;;;;;;5015164;28;20174;-71
2021/03/18 12:39:52;;;;;;;6.57;5.63;;;7.10;97.80;;;;;;5014357;28;20493;-71
2021/03/18 12:42:18;;;;;;;6.93;5.90;;;6.90;98.30;;;;;;5024459;28;20270;-71
2021/03/18 12:44:44;;;;;;;8.67;6.87;;;6.90;98.70;;;;;;5033624;28;20591;-71
2021/03/18 12:47:10;;;;;;;7.30;6.27;;;6.90;99.00;;;;;;5034285;28;20187;-71
2021/03/18 12:49:36;;;;;;;8.60;5.17;;;7.00;98.90;;;;;;5034026;28;20183;-71
2021/03/18 12:52:04;;;;;;;8.70;5.63;;;7.20;98.40;;;;;;5034241;28;20440;-71
2021/03/18 12:54:30;;;;;;;6.23;5.73;;;7.30;98.30;;;;;;5034811;28;20883;-71